createdAt,value
2022-12-13T00:00:30.097Z,312.5
2022-12-13T00:05:30.106Z,312.5
2022-12-13T00:10:30.093Z,312.5
2022-12-13T00:15:30.100Z,312.5
2022-12-13T00:20:30.101Z,312.5
2022-12-13T00:25:30.107Z,312.5
2022-12-13T00:30:30.153Z,312.5
2022-12-13T00:35:30.104Z,312.5
2022-12-13T00:40:30.102Z,312.5
2022-12-13T00:45:30.111Z,312.5
2022-12-13T00:50:30.094Z,312.5
2022-12-13T00:55:30.111Z,312.5
2022-12-13T01:00:30.093Z,312.5
2022-12-13T01:06:04.045Z,312.5
2022-12-13T01:10:30.088Z,312.5
2022-12-13T01:15:30.099Z,312.5
2022-12-13T01:20:30.099Z,312.5
2022-12-13T01:25:30.091Z,312.5
2022-12-13T01:30:30.139Z,312.5
2022-12-13T01:35:30.103Z,312.5
2022-12-13T01:40:30.091Z,312.5
2022-12-13T01:45:30.109Z,312.5
2022-12-13T01:50:30.106Z,312.5
2022-12-13T01:55:30.098Z,312.5
2022-12-13T02:00:30.102Z,312.5
2022-12-13T02:05:30.139Z,312.5
2022-12-13T02:10:30.101Z,312.5
2022-12-13T02:15:30.094Z,312.5
2022-12-13T02:20:30.097Z,312.5
2022-12-13T02:25:30.108Z,312.5
2022-12-13T02:30:30.097Z,312.5
2022-12-13T02:35:30.096Z,312.5
2022-12-13T02:40:30.094Z,312.5
2022-12-13T02:45:30.100Z,312.5
2022-12-13T02:50:30.106Z,312.5
2022-12-13T02:55:30.106Z,312.5
2022-12-13T03:00:30.100Z,312.5
2022-12-13T03:05:30.103Z,312.5
2022-12-13T03:10:30.109Z,312.5
2022-12-13T03:15:30.098Z,312.5
2022-12-13T03:20:30.108Z,312.5
2022-12-13T03:25:30.659Z,312.5
2022-12-13T03:30:30.103Z,312.5
2022-12-13T03:35:33.904Z,312.5
2022-12-13T03:40:30.103Z,312.5
2022-12-13T03:45:30.098Z,312.5
2022-12-13T03:50:30.111Z,312.5
2022-12-13T03:55:30.105Z,312.5
2022-12-13T04:00:30.096Z,312.5
2022-12-13T04:05:30.112Z,312.5
2022-12-13T04:10:30.104Z,312.5
2022-12-13T04:15:30.110Z,312.5
2022-12-13T04:20:30.092Z,312.5
2022-12-13T04:25:30.101Z,312.5
2022-12-13T04:30:30.095Z,312.5
2022-12-13T04:35:30.109Z,312.5
2022-12-13T04:40:30.107Z,312.5
2022-12-13T04:45:30.164Z,312.5
2022-12-13T04:50:30.099Z,312.5
2022-12-13T04:55:30.102Z,312.5
2022-12-13T05:00:30.094Z,312.5
2022-12-13T05:05:30.111Z,312.5
2022-12-13T05:10:33.625Z,312.5
2022-12-13T05:15:30.108Z,312.5
2022-12-13T05:20:30.130Z,312.5
2022-12-13T05:25:30.105Z,312.5
2022-12-13T05:30:30.103Z,312.5
2022-12-13T05:35:30.095Z,312.5
2022-12-13T05:40:30.104Z,312.5
2022-12-13T05:45:30.124Z,312.5
2022-12-13T05:50:30.094Z,312.5
2022-12-13T05:55:30.104Z,312.5
2022-12-13T06:00:30.955Z,312.5
2022-12-13T06:05:30.112Z,312.5
2022-12-13T06:10:34.542Z,312.5
2022-12-13T06:15:34.534Z,312.5
2022-12-13T06:20:30.094Z,312.5
2022-12-13T06:25:32.069Z,312.5
2022-12-13T06:30:30.165Z,312.5
2022-12-13T06:35:31.510Z,312.5
2022-12-13T06:40:30.095Z,312.5
2022-12-13T06:45:30.095Z,312.5
2022-12-13T06:50:30.105Z,312.5
2022-12-13T06:55:30.102Z,312.5
2022-12-13T07:00:33.700Z,312.5
2022-12-13T07:05:30.101Z,312.5
2022-12-13T07:10:30.095Z,312.5
2022-12-13T07:15:30.197Z,312.5
2022-12-13T07:20:30.098Z,312.5
2022-12-13T07:25:30.094Z,312.5
2022-12-13T07:30:30.101Z,312.5
2022-12-13T07:35:30.095Z,312.5
2022-12-13T07:40:30.087Z,312.5
2022-12-13T07:45:30.097Z,312.5
2022-12-13T07:50:36.734Z,312.5
2022-12-13T07:55:33.293Z,312.5
2022-12-13T08:00:30.100Z,312.5
2022-12-13T08:05:30.148Z,312.5
2022-12-13T08:10:30.110Z,312.5
2022-12-13T08:15:30.110Z,312.5
2022-12-13T08:20:30.088Z,312.5
2022-12-13T08:25:30.099Z,312.5
2022-12-13T08:30:30.095Z,312.5
2022-12-13T08:35:33.868Z,312.5
2022-12-13T08:40:30.088Z,312.5
2022-12-13T08:45:30.092Z,312.5
2022-12-13T08:50:30.095Z,312.5
2022-12-13T08:55:31.516Z,312.5
2022-12-13T09:00:36.104Z,312.5
2022-12-13T09:05:32.801Z,312.5
2022-12-13T09:10:30.163Z,312.5
2022-12-13T09:15:33.703Z,312.5
2022-12-13T09:20:30.286Z,312.5
2022-12-13T09:25:36.924Z,312.5
2022-12-13T09:30:31.252Z,312.5
2022-12-13T09:35:30.109Z,312.5
2022-12-13T09:40:30.184Z,312.5
2022-12-13T09:45:31.805Z,312.5
2022-12-13T09:50:30.091Z,312.5
2022-12-13T09:55:30.219Z,312.5
2022-12-13T10:00:30.090Z,312.5
2022-12-13T10:05:33.652Z,312.5
2022-12-13T10:10:30.095Z,312.5
2022-12-13T10:15:30.120Z,60
2022-12-13T10:20:30.095Z,25
2022-12-13T10:25:30.090Z,75
2022-12-13T10:30:30.173Z,62.5
2022-12-13T10:35:30.114Z,70
2022-12-13T10:40:31.817Z,52.5
2022-12-13T10:45:30.170Z,72.5
2022-12-13T10:50:30.168Z,67.5
2022-12-13T10:55:30.106Z,62.5
2022-12-13T11:00:30.109Z,60
2022-12-13T11:05:30.094Z,40
2022-12-13T11:10:30.091Z,52.5
2022-12-13T11:15:30.108Z,27.5
2022-12-13T11:20:30.104Z,22.5
2022-12-13T11:25:30.094Z,52.5
2022-12-13T11:30:30.099Z,75
2022-12-13T11:35:30.112Z,27.5
2022-12-13T11:40:30.089Z,47.5
2022-12-13T11:45:30.091Z,55
2022-12-13T11:50:33.927Z,90
2022-12-13T11:55:30.105Z,62.5
2022-12-13T12:00:33.444Z,27.5
2022-12-13T12:05:30.114Z,47.5
2022-12-13T12:10:30.103Z,57.5
2022-12-13T12:15:30.110Z,50
2022-12-13T12:20:30.142Z,50
2022-12-13T12:25:30.101Z,42.5
2022-12-13T12:30:30.093Z,65
2022-12-13T12:35:30.100Z,75
2022-12-13T12:40:40.155Z,57.5
2022-12-13T12:45:55.000Z,50
2022-12-13T12:50:30.092Z,42.5
2022-12-13T12:55:30.104Z,62.5
2022-12-13T13:00:30.106Z,55
2022-12-13T13:05:30.095Z,62.5
2022-12-13T13:10:30.102Z,60
2022-12-13T13:15:30.113Z,50
2022-12-13T13:20:30.142Z,55
2022-12-13T13:25:30.102Z,65
2022-12-13T13:30:30.101Z,70
2022-12-13T13:35:30.099Z,62.5
2022-12-13T13:40:31.744Z,65
2022-12-13T13:45:30.097Z,75
2022-12-13T13:50:30.104Z,67.5
2022-12-13T13:55:30.110Z,60
2022-12-13T14:00:30.096Z,57.5
2022-12-13T14:05:30.101Z,52.5
2022-12-13T14:10:30.102Z,65
2022-12-13T14:15:30.110Z,55
2022-12-13T14:20:30.145Z,55
2022-12-13T14:25:30.104Z,70
2022-12-13T14:30:30.099Z,52.5
2022-12-13T14:35:30.119Z,35
2022-12-13T14:40:30.100Z,22.5
2022-12-13T14:45:30.103Z,20
2022-12-13T14:50:30.103Z,27.5
2022-12-13T14:55:30.118Z,25
2022-12-13T15:00:30.155Z,27.5
2022-12-13T15:05:30.113Z,17.5
2022-12-13T15:10:30.106Z,25
2022-12-13T15:15:30.112Z,22.5
2022-12-13T15:20:30.190Z,35
2022-12-13T15:25:30.102Z,15
2022-12-13T15:30:30.523Z,357.5
2022-12-13T15:35:30.118Z,0
2022-12-13T15:40:30.107Z,345
2022-12-13T15:45:36.594Z,305
2022-12-13T15:50:30.103Z,330
2022-12-13T15:55:30.128Z,300
2022-12-13T16:00:31.459Z,312.5
2022-12-13T16:05:30.117Z,295
2022-12-13T16:10:30.113Z,292.5
2022-12-13T16:15:30.271Z,285
2022-12-13T16:20:30.136Z,327.5
2022-12-13T16:25:30.105Z,330
2022-12-13T16:30:30.099Z,315
2022-12-13T16:35:30.103Z,297.5
2022-12-13T16:40:30.110Z,310
2022-12-13T16:45:41.388Z,350
2022-12-13T16:50:30.109Z,25
2022-12-13T16:55:30.114Z,37.5
2022-12-13T17:00:30.103Z,20
2022-12-13T17:05:30.106Z,35
2022-12-13T17:10:30.110Z,30
2022-12-13T17:15:30.115Z,25
2022-12-13T17:20:30.132Z,30
2022-12-13T17:25:30.108Z,40
2022-12-13T17:30:30.153Z,32.5
2022-12-13T17:35:30.108Z,15
2022-12-13T17:40:30.104Z,5
2022-12-13T17:45:30.102Z,15
2022-12-13T17:50:30.102Z,25
2022-12-13T17:55:30.110Z,22.5
2022-12-13T18:00:30.096Z,22.5
2022-12-13T18:05:30.105Z,20
2022-12-13T18:10:30.475Z,20
2022-12-13T18:15:30.147Z,25
2022-12-13T18:20:30.189Z,10
2022-12-13T18:25:30.120Z,20
2022-12-13T18:30:30.110Z,17.5
2022-12-13T18:35:30.107Z,30
2022-12-13T18:40:30.100Z,30
2022-12-13T18:45:30.112Z,32.5
2022-12-13T18:50:30.101Z,22.5
2022-12-13T18:55:30.091Z,22.5
2022-12-13T19:00:30.090Z,22.5
2022-12-13T19:05:30.103Z,30
2022-12-13T19:10:30.099Z,35
2022-12-13T19:15:30.116Z,35
2022-12-13T19:20:30.182Z,35
2022-12-13T19:25:30.108Z,35
2022-12-13T19:30:30.100Z,25
2022-12-13T19:35:30.104Z,20
2022-12-13T19:40:30.099Z,20
2022-12-13T19:45:30.099Z,5
2022-12-13T19:50:30.091Z,20
2022-12-13T19:55:30.110Z,22.5
2022-12-13T20:00:30.149Z,20
2022-12-13T20:05:30.096Z,12.5
2022-12-13T20:10:30.098Z,7.5
2022-12-13T20:15:30.094Z,15
2022-12-13T20:20:41.069Z,355
2022-12-13T20:25:30.097Z,15
2022-12-13T20:30:30.102Z,20
2022-12-13T20:35:30.096Z,47.5
2022-12-13T20:40:30.094Z,37.5
2022-12-13T20:45:30.106Z,10
2022-12-13T20:50:30.096Z,30
2022-12-13T20:55:30.115Z,35
2022-12-13T21:00:30.143Z,35
2022-12-13T21:05:30.118Z,20
2022-12-13T21:10:30.110Z,12.5
2022-12-13T21:15:30.102Z,22.5
2022-12-13T21:20:30.152Z,12.5
2022-12-13T21:25:30.112Z,5
2022-12-13T21:30:30.109Z,12.5
2022-12-13T21:35:30.124Z,5
2022-12-13T21:40:30.102Z,7.5
2022-12-13T21:45:30.123Z,7.5
2022-12-13T21:50:30.094Z,12.5
2022-12-13T21:55:38.646Z,22.5
2022-12-13T22:00:30.092Z,22.5
2022-12-13T22:05:30.102Z,32.5
2022-12-13T22:10:30.094Z,52.5
2022-12-13T22:15:30.101Z,47.5
2022-12-13T22:20:30.158Z,37.5
2022-12-13T22:25:30.103Z,45
2022-12-13T22:30:30.103Z,35
2022-12-13T22:35:30.107Z,42.5
2022-12-13T22:40:30.091Z,40
2022-12-13T22:45:30.134Z,45
2022-12-13T22:50:30.094Z,55
2022-12-13T22:55:30.093Z,65
2022-12-13T23:00:30.224Z,57.5
2022-12-13T23:05:30.163Z,45
2022-12-13T23:10:30.101Z,47.5
2022-12-13T23:15:30.099Z,62.5
2022-12-13T23:20:30.159Z,65
2022-12-13T23:25:30.107Z,60
2022-12-13T23:30:30.137Z,65
2022-12-13T23:35:30.114Z,70
2022-12-13T23:40:30.107Z,60
2022-12-13T23:45:30.105Z,67.5
2022-12-13T23:50:30.096Z,45
2022-12-13T23:55:30.102Z,62.5
